createdAt,value
2023-03-21T00:01:04.959Z,76.47
2023-03-21T00:03:33.799Z,76.68
2023-03-21T00:06:10.723Z,76.80
2023-03-21T00:08:38.348Z,76.42
2023-03-21T00:11:07.500Z,76.62
2023-03-21T00:13:37.761Z,76.34
2023-03-21T00:16:12.186Z,76.87
2023-03-21T00:18:51.820Z,77.33
2023-03-21T00:21:48.806Z,78.53
2023-03-21T00:24:07.573Z,79.21
2023-03-21T00:26:34.377Z,79.36
2023-03-21T00:29:01.158Z,79.58
2023-03-21T00:31:27.976Z,79.67
2023-03-21T00:33:54.876Z,79.76
2023-03-21T00:36:25.336Z,79.51
2023-03-21T00:38:52.000Z,79.06
2023-03-21T00:41:31.626Z,78.18
2023-03-21T00:44:01.689Z,77.64
2023-03-21T00:46:39.753Z,77.68
2023-03-21T00:49:09.257Z,77.99
2023-03-21T00:51:36.171Z,78.38
2023-03-21T00:54:05.263Z,78.81
2023-03-21T00:56:31.971Z,78.90
2023-03-21T00:58:58.868Z,79.28
2023-03-21T01:01:26.052Z,79.19
2023-03-21T01:04:02.946Z,79.11
2023-03-21T01:06:32.783Z,79.34
2023-03-21T01:08:59.349Z,79.61
2023-03-21T01:11:28.278Z,80.05
2023-03-21T01:14:07.167Z,80.20
2023-03-21T01:16:35.805Z,79.97
2023-03-21T01:19:07.001Z,79.93
2023-03-21T01:21:34.087Z,80.22
2023-03-21T01:24:01.161Z,80.03
2023-03-21T01:26:28.686Z,80.24
2023-03-21T01:28:55.284Z,80.40
2023-03-21T01:31:22.480Z,79.95
2023-03-21T01:33:49.433Z,80.02
2023-03-21T01:36:23.186Z,80.36
2023-03-21T01:38:51.528Z,80.20
2023-03-21T01:41:36.715Z,80.21
2023-03-21T01:44:17.453Z,80.47
2023-03-21T01:46:57.347Z,80.14
2023-03-21T01:49:35.479Z,80.41
2023-03-21T01:52:15.232Z,80.76
2023-03-21T01:54:47.738Z,80.33
2023-03-21T01:57:21.760Z,79.97
2023-03-21T01:59:53.771Z,80.07
2023-03-21T02:02:26.881Z,79.67
2023-03-21T02:04:57.616Z,79.14
2023-03-21T02:07:31.025Z,79.28
2023-03-21T02:10:02.772Z,79.08
2023-03-21T02:12:30.191Z,79.30
2023-03-21T02:14:57.186Z,79.38
2023-03-21T02:17:53.900Z,80.32
2023-03-21T02:20:42.236Z,81.18
2023-03-21T02:23:23.866Z,81.26
2023-03-21T02:26:06.013Z,81.31
2023-03-21T02:28:38.919Z,81.60
2023-03-21T02:31:33.805Z,81.55
2023-03-21T02:34:36.713Z,80.97
2023-03-21T02:37:11.621Z,80.04
2023-03-21T02:40:16.345Z,79.85
2023-03-21T02:42:59.422Z,81.14
2023-03-21T02:45:35.705Z,81.54
2023-03-21T02:48:20.312Z,81.48
2023-03-21T02:50:55.105Z,81.66
2023-03-21T02:53:45.441Z,80.94
2023-03-21T02:56:12.372Z,80.87
2023-03-21T02:58:41.462Z,81.11
2023-03-21T03:01:08.616Z,81.09
2023-03-21T03:03:38.791Z,81.28
2023-03-21T03:06:16.418Z,81.11
2023-03-21T03:09:03.007Z,81.19
2023-03-21T03:11:35.957Z,81.17
2023-03-21T03:15:00.220Z,81.12
2023-03-21T03:18:09.672Z,80.83
2023-03-21T03:20:52.692Z,81.43
2023-03-21T03:23:41.300Z,81.91
2023-03-21T03:26:31.100Z,81.64
2023-03-21T03:29:02.586Z,81.16
2023-03-21T03:31:35.013Z,81.88
2023-03-21T03:34:06.582Z,82.00
2023-03-21T03:36:41.360Z,81.79
2023-03-21T03:39:11.194Z,81.20
2023-03-21T03:42:21.711Z,81.59
2023-03-21T03:44:40.243Z,81.26
2023-03-21T03:47:22.844Z,80.76
2023-03-21T03:50:09.234Z,80.62
2023-03-21T03:52:53.648Z,80.64
2023-03-21T03:55:25.893Z,80.61
2023-03-21T03:57:54.957Z,80.81
2023-03-21T04:00:21.551Z,80.75
2023-03-21T04:02:48.617Z,80.44
2023-03-21T04:05:22.847Z,80.31
2023-03-21T04:07:50.668Z,80.38
2023-03-21T04:10:19.459Z,80.79
2023-03-21T04:12:48.191Z,80.89
2023-03-21T04:15:16.346Z,81.80
2023-03-21T04:17:44.765Z,82.39
2023-03-21T04:20:18.677Z,82.53
2023-03-21T04:22:50.684Z,82.51
2023-03-21T04:25:30.790Z,82.22
2023-03-21T04:28:00.399Z,82.42
2023-03-21T04:30:33.550Z,81.96
2023-03-21T04:33:00.640Z,82.15
2023-03-21T04:35:28.473Z,82.63
2023-03-21T04:37:55.736Z,82.65
2023-03-21T04:40:24.541Z,81.75
2023-03-21T04:42:54.487Z,81.60
2023-03-21T04:45:21.697Z,81.28
2023-03-21T04:47:49.407Z,81.38
2023-03-21T04:50:16.203Z,81.91
2023-03-21T04:52:43.027Z,82.20
2023-03-21T04:55:10.654Z,82.57
2023-03-21T04:57:39.877Z,82.23
2023-03-21T05:00:10.043Z,82.25
2023-03-21T05:02:38.378Z,81.90
2023-03-21T05:05:10.407Z,82.27
2023-03-21T05:07:39.114Z,82.65
2023-03-21T05:10:07.933Z,82.82
2023-03-21T05:12:35.187Z,82.38
2023-03-21T05:15:02.259Z,82.51
2023-03-21T05:17:29.998Z,82.25
2023-03-21T05:19:57.175Z,82.04
2023-03-21T05:22:26.178Z,81.57
2023-03-21T05:24:54.681Z,81.28
2023-03-21T05:27:44.694Z,81.23
2023-03-21T05:30:15.712Z,80.68
2023-03-21T05:32:43.215Z,80.64
2023-03-21T05:35:11.078Z,80.34
2023-03-21T05:37:38.320Z,80.60
2023-03-21T05:40:06.641Z,80.41
2023-03-21T05:42:34.390Z,80.47
2023-03-21T05:45:08.738Z,80.47
2023-03-21T05:47:36.067Z,80.32
2023-03-21T05:50:04.129Z,80.33
2023-03-21T05:52:31.459Z,80.13
2023-03-21T05:54:58.930Z,80.13
2023-03-21T05:57:28.212Z,79.80
2023-03-21T05:59:56.101Z,79.41
2023-03-21T06:02:23.110Z,78.56
2023-03-21T06:04:53.502Z,77.42
2023-03-21T06:07:20.682Z,77.82
2023-03-21T06:09:49.213Z,77.76
2023-03-21T06:12:16.283Z,76.86
2023-03-21T06:14:43.085Z,77.27
2023-03-21T06:17:10.520Z,76.36
2023-03-21T06:19:39.901Z,75.45
2023-03-21T06:22:07.224Z,75.74
2023-03-21T06:24:34.549Z,75.78
2023-03-21T06:27:03.505Z,75.29
2023-03-21T06:29:32.941Z,75.39
2023-03-21T06:32:00.076Z,74.93
2023-03-21T06:34:27.107Z,74.91
2023-03-21T06:36:54.161Z,74.37
2023-03-21T06:39:21.463Z,74.00
2023-03-21T06:41:48.406Z,73.97
2023-03-21T06:44:15.321Z,73.90
2023-03-21T06:46:43.538Z,73.29
2023-03-21T06:49:11.505Z,73.47
2023-03-21T06:51:38.291Z,72.95
2023-03-21T06:54:05.198Z,72.50
2023-03-21T06:56:33.207Z,71.77
2023-03-21T06:59:02.186Z,71.43
2023-03-21T07:01:32.284Z,71.11
2023-03-21T07:03:59.945Z,70.93
2023-03-21T07:06:27.256Z,71.53
2023-03-21T07:08:55.337Z,71.33
2023-03-21T07:11:23.624Z,71.78
2023-03-21T07:13:50.996Z,71.57
2023-03-21T07:16:18.619Z,71.46
2023-03-21T07:18:46.051Z,71.20
2023-03-21T07:21:13.339Z,71.29
2023-03-21T07:23:40.671Z,71.07
2023-03-21T07:26:07.620Z,70.95
2023-03-21T07:28:34.279Z,69.88
2023-03-21T07:31:04.640Z,69.63
2023-03-21T07:33:32.861Z,69.29
2023-03-21T07:36:01.921Z,68.67
2023-03-21T07:38:30.366Z,69.09
2023-03-21T07:41:00.155Z,68.44
2023-03-21T07:43:29.182Z,66.80
2023-03-21T07:45:57.421Z,66.98
2023-03-21T07:48:26.820Z,65.66
2023-03-21T07:50:53.383Z,64.45
2023-03-21T07:53:20.276Z,63.59
2023-03-21T07:55:52.422Z,62.69
2023-03-21T07:58:19.064Z,61.90
2023-03-21T08:00:45.722Z,62.75
2023-03-21T08:03:12.658Z,61.99
2023-03-21T08:05:40.558Z,61.63
2023-03-21T08:08:07.619Z,60.72
2023-03-21T08:10:34.915Z,60.31
2023-03-21T08:13:02.075Z,60.38
2023-03-21T08:15:28.776Z,59.94
2023-03-21T08:17:55.808Z,59.28
2023-03-21T08:20:22.769Z,56.82
2023-03-21T08:22:50.209Z,55.05
2023-03-21T08:25:19.004Z,53.26
2023-03-21T08:27:46.117Z,52.57
2023-03-21T08:30:15.881Z,52.65
2023-03-21T08:32:42.889Z,51.97
2023-03-21T08:35:12.353Z,51.96
2023-03-21T08:37:40.681Z,50.56
2023-03-21T08:40:11.293Z,50.08
2023-03-21T08:42:38.701Z,51.75
2023-03-21T08:45:06.135Z,52.57
2023-03-21T08:47:33.013Z,53.22
2023-03-21T08:49:59.892Z,52.48
2023-03-21T08:52:27.187Z,52.63
2023-03-21T08:54:54.754Z,53.53
2023-03-21T08:57:21.356Z,53.81
2023-03-21T08:59:48.013Z,54.00
2023-03-21T09:02:16.179Z,54.11
2023-03-21T09:04:44.054Z,53.94
2023-03-21T09:07:14.405Z,54.03
2023-03-21T09:09:41.664Z,54.45
2023-03-21T09:12:08.383Z,54.16
2023-03-21T09:14:35.399Z,53.68
2023-03-21T09:17:02.156Z,52.98
2023-03-21T09:19:29.724Z,52.80
2023-03-21T09:21:57.309Z,52.91
2023-03-21T09:24:24.165Z,52.60
2023-03-21T09:26:51.053Z,53.63
2023-03-21T09:29:20.722Z,53.81
2023-03-21T09:31:48.004Z,54.25
2023-03-21T09:34:15.058Z,53.63
2023-03-21T09:36:43.670Z,53.46
2023-03-21T09:39:12.108Z,53.62
2023-03-21T09:42:19.117Z,52.42
2023-03-21T09:45:08.065Z,53.62
2023-03-21T09:47:52.359Z,53.32
2023-03-21T09:50:26.785Z,52.63
2023-03-21T09:52:58.144Z,51.06
2023-03-21T09:55:30.467Z,49.62
2023-03-21T09:58:21.352Z,48.77
2023-03-21T10:00:55.958Z,49.41
2023-03-21T10:03:29.114Z,49.34
2023-03-21T10:06:00.963Z,49.58
2023-03-21T10:08:35.903Z,50.91
2023-03-21T10:11:11.981Z,51.73
2023-03-21T10:13:43.552Z,51.83
2023-03-21T10:16:33.693Z,51.30
2023-03-21T10:19:04.862Z,51.19
2023-03-21T10:21:58.502Z,51.19
2023-03-21T10:24:24.717Z,52.18
2023-03-21T10:26:52.881Z,52.61
2023-03-21T10:29:24.131Z,52.29
2023-03-21T10:31:52.420Z,52.36
2023-03-21T10:34:41.106Z,52.06
2023-03-21T10:37:08.294Z,51.27
2023-03-21T10:39:37.897Z,49.95
2023-03-21T10:42:04.530Z,48.96
2023-03-21T10:44:33.850Z,47.49
2023-03-21T10:47:06.544Z,44.96
2023-03-21T10:49:40.757Z,44.51
2023-03-21T10:52:21.899Z,43.50
2023-03-21T10:54:49.680Z,44.81
2023-03-21T10:57:21.169Z,45.60
2023-03-21T10:59:55.182Z,44.84
2023-03-21T11:02:32.738Z,44.61
2023-03-21T11:05:06.010Z,44.99
2023-03-21T11:07:34.989Z,47.10
2023-03-21T11:10:19.957Z,45.57
2023-03-21T11:12:56.593Z,47.83
2023-03-21T11:16:02.382Z,49.23
2023-03-21T11:18:32.814Z,49.31
2023-03-21T11:21:05.848Z,48.92
2023-03-21T11:23:36.887Z,49.53
2023-03-21T11:26:10.203Z,49.27
2023-03-21T11:28:39.698Z,49.02
2023-03-21T11:31:08.736Z,48.78
2023-03-21T11:33:39.945Z,48.20
2023-03-21T11:36:31.438Z,47.87
2023-03-21T11:39:03.130Z,47.53
2023-03-21T11:41:32.738Z,47.45
2023-03-21T11:44:01.187Z,46.01
2023-03-21T11:46:30.770Z,44.54
2023-03-21T11:48:59.670Z,42.63
2023-03-21T11:51:52.848Z,43.10
2023-03-21T11:54:28.886Z,44.59
2023-03-21T11:57:18.094Z,44.50
2023-03-21T11:59:57.438Z,44.35
2023-03-21T12:02:55.350Z,45.91
2023-03-21T12:05:35.883Z,47.59
2023-03-21T12:08:19.544Z,48.41
2023-03-21T12:10:57.884Z,49.00
2023-03-21T12:14:00.156Z,49.17
2023-03-21T12:16:42.787Z,48.69
2023-03-21T12:19:43.118Z,48.65
2023-03-21T12:22:37.091Z,47.26
2023-03-21T12:25:13.571Z,48.67
2023-03-21T12:28:08.729Z,47.63
2023-03-21T12:31:04.898Z,44.63
2023-03-21T12:33:49.785Z,43.68
2023-03-21T12:36:49.184Z,43.36
2023-03-21T12:39:28.409Z,42.53
2023-03-21T12:42:13.141Z,42.41
2023-03-21T12:44:47.256Z,41.18
2023-03-21T12:47:19.555Z,41.24
2023-03-21T12:49:52.000Z,42.22
2023-03-21T12:52:26.234Z,43.10
2023-03-21T12:55:18.725Z,42.44
2023-03-21T12:58:02.849Z,39.20
2023-03-21T13:00:52.567Z,38.33
2023-03-21T13:03:30.581Z,37.29
2023-03-21T13:06:06.820Z,34.93
2023-03-21T13:08:38.960Z,35.71
2023-03-21T13:11:07.608Z,33.81
2023-03-21T13:13:56.222Z,33.14
2023-03-21T13:16:32.077Z,35.80
2023-03-21T13:19:12.780Z,40.33
2023-03-21T13:21:56.694Z,42.43
2023-03-21T13:24:28.875Z,38.09
2023-03-21T13:27:03.540Z,37.77
2023-03-21T13:29:51.798Z,38.04
2023-03-21T13:32:33.068Z,36.49
2023-03-21T13:35:13.026Z,35.60
2023-03-21T13:37:43.157Z,35.21
2023-03-21T13:40:24.125Z,33.79
2023-03-21T13:42:56.321Z,34.42
2023-03-21T13:45:30.533Z,34.07
2023-03-21T13:48:02.921Z,32.69
2023-03-21T13:50:34.722Z,33.39
2023-03-21T13:53:19.837Z,33.14
2023-03-21T13:55:57.405Z,33.18
2023-03-21T13:58:34.429Z,32.78
2023-03-21T14:01:12.931Z,33.87
2023-03-21T14:03:40.737Z,33.71
2023-03-21T14:06:10.191Z,33.28
2023-03-21T14:08:40.744Z,34.65
2023-03-21T14:11:14.383Z,33.79
2023-03-21T14:13:50.755Z,34.84
2023-03-21T14:16:21.317Z,35.40
2023-03-21T14:18:55.933Z,35.21
2023-03-21T14:21:25.955Z,35.85
2023-03-21T14:23:57.910Z,35.64
2023-03-21T14:26:28.522Z,35.25
2023-03-21T14:28:57.421Z,36.72
2023-03-21T14:31:25.670Z,36.21
2023-03-21T14:33:57.154Z,36.71
2023-03-21T14:36:28.079Z,36.10
2023-03-21T14:39:03.405Z,37.87
2023-03-21T14:41:31.995Z,37.74
2023-03-21T14:44:24.721Z,37.82
2023-03-21T14:47:12.200Z,38.17
2023-03-21T14:49:38.978Z,38.84
2023-03-21T14:52:12.746Z,40.00
2023-03-21T14:54:43.920Z,40.27
2023-03-21T14:57:13.926Z,40.64
2023-03-21T14:59:41.626Z,41.02
2023-03-21T15:02:27.786Z,41.20
2023-03-21T15:04:58.371Z,42.36
2023-03-21T15:07:34.088Z,42.92
2023-03-21T15:10:08.419Z,43.90
2023-03-21T15:12:35.307Z,44.63
2023-03-21T15:15:02.601Z,45.88
2023-03-21T15:17:30.498Z,46.87
2023-03-21T15:19:57.159Z,48.36
2023-03-21T15:22:47.443Z,50.52
2023-03-21T15:25:20.545Z,53.97
2023-03-21T15:27:50.340Z,55.97
2023-03-21T15:30:21.699Z,61.91
2023-03-21T15:32:49.765Z,62.21
2023-03-21T15:35:21.007Z,61.21
2023-03-21T15:37:57.588Z,61.69
2023-03-21T15:40:27.181Z,59.70
2023-03-21T15:43:15.003Z,61.38
2023-03-21T15:45:54.364Z,61.28
2023-03-21T15:48:25.557Z,62.77
2023-03-21T15:51:03.545Z,62.30
2023-03-21T15:53:33.222Z,62.05
2023-03-21T15:56:05.277Z,62.05
2023-03-21T15:58:35.989Z,63.35
2023-03-21T16:01:06.517Z,62.94
2023-03-21T16:03:39.913Z,59.87
2023-03-21T16:06:20.202Z,65.96
2023-03-21T16:08:49.703Z,62.87
2023-03-21T16:11:27.592Z,61.67
2023-03-21T16:13:55.939Z,62.81
2023-03-21T16:16:28.349Z,62.54
2023-03-21T16:18:57.267Z,64.03
2023-03-21T16:21:30.025Z,63.29
2023-03-21T16:23:59.616Z,63.90
2023-03-21T16:26:31.503Z,64.22
2023-03-21T16:28:58.921Z,66.31
2023-03-21T16:31:28.618Z,64.49
2023-03-21T16:33:55.256Z,63.36
2023-03-21T16:36:28.887Z,63.17
2023-03-21T16:38:56.031Z,64.95
2023-03-21T16:41:24.173Z,62.64
2023-03-21T16:43:51.701Z,62.18
2023-03-21T16:46:27.268Z,62.12
2023-03-21T16:48:57.082Z,62.49
2023-03-21T16:51:29.923Z,62.30
2023-03-21T16:53:57.250Z,62.98
2023-03-21T16:56:27.423Z,62.86
2023-03-21T16:58:55.297Z,62.96
2023-03-21T17:01:27.742Z,62.57
2023-03-21T17:03:54.353Z,62.26
2023-03-21T17:06:24.126Z,62.47
2023-03-21T17:08:51.889Z,62.38
2023-03-21T17:11:21.507Z,61.73
2023-03-21T17:13:50.337Z,61.56
2023-03-21T17:16:20.331Z,61.67
2023-03-21T17:18:47.805Z,62.08
2023-03-21T17:21:17.443Z,61.61
2023-03-21T17:23:44.799Z,62.13
2023-03-21T17:26:13.974Z,62.26
2023-03-21T17:28:41.625Z,62.51
2023-03-21T17:31:13.902Z,62.53
2023-03-21T17:33:41.396Z,62.66
2023-03-21T17:36:15.172Z,61.53
2023-03-21T17:38:42.579Z,60.94
2023-03-21T17:41:12.166Z,61.08
2023-03-21T17:43:40.336Z,61.44
2023-03-21T17:46:12.421Z,61.50
2023-03-21T17:48:39.237Z,61.42
2023-03-21T17:51:06.382Z,61.26
2023-03-21T17:53:33.168Z,62.81
2023-03-21T17:56:00.201Z,60.16
2023-03-21T17:58:27.801Z,60.56
2023-03-21T18:00:54.342Z,60.33
2023-03-21T18:03:21.082Z,60.47
2023-03-21T18:05:47.714Z,61.06
2023-03-21T18:08:14.176Z,61.37
2023-03-21T18:10:41.950Z,61.20
2023-03-21T18:13:08.961Z,61.28
2023-03-21T18:15:38.068Z,61.54
2023-03-21T18:18:05.574Z,62.04
2023-03-21T18:23:20.201Z,62.54
2023-03-21T18:25:47.174Z,63.78
2023-03-21T18:28:14.170Z,62.17
2023-03-21T18:31:06.992Z,63.20
2023-03-21T18:33:27.761Z,62.96
2023-03-21T18:35:59.001Z,62.97
2023-03-21T18:38:27.384Z,62.88
2023-03-21T18:40:55.204Z,63.36
2023-03-21T18:46:08.894Z,63.74
2023-03-21T18:48:36.001Z,63.88
2023-03-21T18:51:04.125Z,63.99
2023-03-21T18:53:32.076Z,64.57
2023-03-21T18:55:58.623Z,64.66
2023-03-21T18:58:25.192Z,64.74
2023-03-21T19:00:53.092Z,64.97
2023-03-21T19:03:34.097Z,64.81
2023-03-21T19:06:05.520Z,64.67
2023-03-21T19:08:34.040Z,64.04
2023-03-21T19:11:04.377Z,63.96
2023-03-21T19:13:33.779Z,63.02
2023-03-21T19:16:02.500Z,62.77
2023-03-21T19:18:50.227Z,62.78
2023-03-21T19:21:18.370Z,63.19
2023-03-21T19:24:20.899Z,63.15
2023-03-21T19:26:32.351Z,62.61
2023-03-21T19:28:59.051Z,62.64
2023-03-21T19:31:26.101Z,62.03
2023-03-21T19:33:53.006Z,61.98
2023-03-21T19:36:22.770Z,62.22
2023-03-21T19:38:50.905Z,61.73
2023-03-21T19:41:20.211Z,61.73
2023-03-21T19:43:54.157Z,61.69
2023-03-21T19:46:24.326Z,61.98
2023-03-21T19:48:55.934Z,61.87
2023-03-21T19:51:28.749Z,61.83
2023-03-21T19:53:56.484Z,62.10
2023-03-21T19:56:27.066Z,62.29
2023-03-21T19:58:55.004Z,62.48
2023-03-21T20:01:23.338Z,62.72
2023-03-21T20:03:51.674Z,62.78
2023-03-21T20:06:18.437Z,63.03
2023-03-21T20:11:32.604Z,63.20
2023-03-21T20:14:01.327Z,63.65
2023-03-21T20:16:34.276Z,64.18
2023-03-21T20:19:05.221Z,64.44
2023-03-21T20:21:41.095Z,64.73
2023-03-21T20:24:12.199Z,65.10
2023-03-21T20:26:38.906Z,65.19
2023-03-21T20:29:48.464Z,65.51
2023-03-21T20:31:52.588Z,65.46
2023-03-21T20:34:19.171Z,65.80
2023-03-21T20:36:46.264Z,65.78
2023-03-21T20:39:13.337Z,66.08
2023-03-21T20:41:40.308Z,66.96
2023-03-21T20:44:41.667Z,67.55
2023-03-21T20:46:54.372Z,67.71
2023-03-21T20:49:22.488Z,68.91
2023-03-21T20:54:36.695Z,69.87
2023-03-21T20:57:05.037Z,70.32
2023-03-21T20:59:31.913Z,72.52
2023-03-21T21:01:59.006Z,73.72
2023-03-21T21:07:16.781Z,74.71
2023-03-21T21:09:44.902Z,76.00
2023-03-21T21:12:13.055Z,77.10
2023-03-21T21:14:40.674Z,75.82
2023-03-21T21:17:24.582Z,77.90
2023-03-21T21:19:54.116Z,77.90
2023-03-21T21:22:20.784Z,79.33
2023-03-21T21:24:47.311Z,80.09
2023-03-21T21:27:14.183Z,80.16
2023-03-21T21:29:42.626Z,81.25
2023-03-21T21:32:09.263Z,81.51
2023-03-21T21:34:36.562Z,82.75
2023-03-21T21:37:03.334Z,82.60
2023-03-21T21:39:35.308Z,84.55
2023-03-21T21:42:02.148Z,83.85
2023-03-21T21:44:29.321Z,85.71
2023-03-21T21:46:56.760Z,83.93
2023-03-21T21:49:24.132Z,85.28
2023-03-21T21:51:50.590Z,84.69
2023-03-21T21:54:17.459Z,85.69
2023-03-21T21:56:47.632Z,84.50
2023-03-21T21:59:15.879Z,83.17
2023-03-21T22:01:42.468Z,85.20
2023-03-21T22:04:10.707Z,85.79
2023-03-21T22:06:37.320Z,86.62
2023-03-21T22:09:06.300Z,86.54
2023-03-21T22:11:34.199Z,87.58
2023-03-21T22:14:00.718Z,87.31
2023-03-21T22:16:27.529Z,88.81
2023-03-21T22:18:54.349Z,87.87
2023-03-21T22:21:20.841Z,86.31
2023-03-21T22:23:47.300Z,87.13
2023-03-21T22:26:14.586Z,85.65
2023-03-21T22:28:42.382Z,84.49
2023-03-21T22:31:15.023Z,85.58
2023-03-21T22:33:43.369Z,85.28
2023-03-21T22:36:10.516Z,84.42
2023-03-21T22:38:37.645Z,85.78
2023-03-21T22:41:05.843Z,86.51
2023-03-21T22:43:33.461Z,87.60
2023-03-21T22:46:02.237Z,88.18
2023-03-21T22:48:30.391Z,87.55
2023-03-21T22:50:58.079Z,87.74
2023-03-21T22:53:25.108Z,86.52
2023-03-21T22:55:51.853Z,87.46
2023-03-21T22:58:18.599Z,88.82
2023-03-21T23:00:45.314Z,88.15
2023-03-21T23:03:13.897Z,88.22
2023-03-21T23:05:41.085Z,88.77
2023-03-21T23:08:08.322Z,89.50
2023-03-21T23:10:38.757Z,89.36
2023-03-21T23:13:06.185Z,89.64
2023-03-21T23:15:32.737Z,88.81
2023-03-21T23:17:59.529Z,89.36
2023-03-21T23:20:26.003Z,90.93
2023-03-21T23:22:52.548Z,90.26
2023-03-21T23:25:19.819Z,89.90
2023-03-21T23:27:46.605Z,90.09
2023-03-21T23:30:13.549Z,88.98
2023-03-21T23:32:40.404Z,88.65
2023-03-21T23:35:07.692Z,88.87
2023-03-21T23:37:34.551Z,88.36
2023-03-21T23:40:01.572Z,89.19
2023-03-21T23:42:30.048Z,89.74
2023-03-21T23:44:56.578Z,90.29
2023-03-21T23:47:23.373Z,88.81
2023-03-21T23:49:52.065Z,89.87
2023-03-21T23:52:18.642Z,89.51
2023-03-21T23:54:45.556Z,89.80
2023-03-21T23:57:12.292Z,89.45
2023-03-21T23:59:38.840Z,88.83
